sensor_id;sensor_type;location;lat;lon;timestamp;pressure;altitude;pressure_sealevel;temperature;humidity
6829;BME280;17930;48.592;8.868;2023-06-22T00:02:00;96787.25;;;20.26;100.00
6829;BME280;17930;48.592;8.868;2023-06-22T00:04:27;96795.41;;;20.21;100.00
6829;BME280;17930;48.592;8.868;2023-06-22T00:06:54;96797.16;;;20.05;100.00
6829;BME280;17930;48.592;8.868;2023-06-22T00:09:22;96796.06;;;20.06;100.00
6829;BME280;17930;48.592;8.868;2023-06-22T00:11:48;96804.00;;;20.06;100.00
6829;BME280;17930;48.592;8.868;2023-06-22T00:14:15;96810.94;;;19.99;100.00
6829;BME280;17930;48.592;8.868;2023-06-22T00:16:42;96806.09;;;20.01;100.00
6829;BME280;17930;48.592;8.868;2023-06-22T00:19:09;96800.13;;;20.04;100.00
6829;BME280;17930;48.592;8.868;2023-06-22T00:21:37;96794.28;;;19.98;100.00
6829;BME280;17930;48.592;8.868;2023-06-22T00:24:04;96790.97;;;19.89;100.00
6829;BME280;17930;48.592;8.868;2023-06-22T00:26:32;96788.31;;;19.89;100.00
6829;BME280;17930;48.592;8.868;2023-06-22T00:28:59;96786.09;;;19.91;100.00
6829;BME280;17930;48.592;8.868;2023-06-22T00:31:26;96792.06;;;19.88;100.00
6829;BME280;17930;48.592;8.868;2023-06-22T00:33:52;96797.34;;;19.88;100.00
6829;BME280;17930;48.592;8.868;2023-06-22T00:36:19;96786.31;;;19.86;100.00
6829;BME280;17930;48.592;8.868;2023-06-22T00:38:46;96791.59;;;19.86;100.00
6829;BME280;17930;48.592;8.868;2023-06-22T00:41:12;96785.38;;;19.70;100.00
6829;BME280;17930;48.592;8.868;2023-06-22T00:43:40;96786.16;;;19.71;100.00
6829;BME280;17930;48.592;8.868;2023-06-22T00:46:07;96817.38;;;19.77;100.00
6829;BME280;17930;48.592;8.868;2023-06-22T00:48:34;96822.16;;;19.84;100.00
6829;BME280;17930;48.592;8.868;2023-06-22T00:51:02;96802.66;;;19.88;100.00
6829;BME280;17930;48.592;8.868;2023-06-22T00:53:29;96816.50;;;19.73;100.00
6829;BME280;17930;48.592;8.868;2023-06-22T00:56:00;96836.56;;;19.74;100.00
6829;BME280;17930;48.592;8.868;2023-06-22T00:58:29;96843.34;;;19.84;100.00
6829;BME280;17930;48.592;8.868;2023-06-22T01:00:57;96822.91;;;19.84;100.00
6829;BME280;17930;48.592;8.868;2023-06-22T01:03:25;96813.84;;;19.73;100.00
6829;BME280;17930;48.592;8.868;2023-06-22T01:05:52;96815.22;;;19.59;100.00
6829;BME280;17930;48.592;8.868;2023-06-22T01:08:27;96821.72;;;19.50;100.00
6829;BME280;17930;48.592;8.868;2023-06-22T01:11:01;96803.13;;;19.58;100.00
6829;BME280;17930;48.592;8.868;2023-06-22T01:13:35;96794.84;;;19.59;100.00
6829;BME280;17930;48.592;8.868;2023-06-22T01:16:09;96794.53;;;19.61;100.00
6829;BME280;17930;48.592;8.868;2023-06-22T01:18:40;96789.09;;;19.57;100.00
6829;BME280;17930;48.592;8.868;2023-06-22T01:21:12;96783.78;;;19.57;100.00
6829;BME280;17930;48.592;8.868;2023-06-22T01:23:51;96789.09;;;19.57;100.00
6829;BME280;17930;48.592;8.868;2023-06-22T01:26:25;96787.09;;;19.54;100.00
6829;BME280;17930;48.592;8.868;2023-06-22T01:28:57;96778.47;;;19.46;100.00
6829;BME280;17930;48.592;8.868;2023-06-22T01:31:27;96779.13;;;19.43;100.00
6829;BME280;17930;48.592;8.868;2023-06-22T01:33:57;96775.81;;;19.34;100.00
6829;BME280;17930;48.592;8.868;2023-06-22T01:36:24;96782.63;;;19.35;100.00
6829;BME280;17930;48.592;8.868;2023-06-22T01:38:52;96774.44;;;19.28;100.00
6829;BME280;17930;48.592;8.868;2023-06-22T01:41:19;96771.75;;;19.16;100.00
6829;BME280;17930;48.592;8.868;2023-06-22T01:43:47;96783.19;;;19.08;100.00
6829;BME280;17930;48.592;8.868;2023-06-22T01:46:17;96792.22;;;19.07;100.00
6829;BME280;17930;48.592;8.868;2023-06-22T01:48:45;96792.34;;;19.10;100.00
6829;BME280;17930;48.592;8.868;2023-06-22T01:51:12;96785.97;;;19.11;100.00
6829;BME280;17930;48.592;8.868;2023-06-22T01:53:40;96788.94;;;19.10;100.00
6829;BME280;17930;48.592;8.868;2023-06-22T01:56:06;96805.59;;;19.02;100.00
6829;BME280;17930;48.592;8.868;2023-06-22T01:58:33;96800.16;;;19.07;100.00
6829;BME280;17930;48.592;8.868;2023-06-22T02:01:11;96792.97;;;19.28;100.00
6829;BME280;17930;48.592;8.868;2023-06-22T02:03:42;96786.41;;;19.13;100.00
6829;BME280;17930;48.592;8.868;2023-06-22T02:06:15;96787.59;;;19.04;100.00
6829;BME280;17930;48.592;8.868;2023-06-22T02:08:47;96800.53;;;18.97;100.00
6829;BME280;17930;48.592;8.868;2023-06-22T02:11:18;96794.59;;;19.00;100.00
6829;BME280;17930;48.592;8.868;2023-06-22T02:13:47;96789.63;;;18.99;100.00
6829;BME280;17930;48.592;8.868;2023-06-22T02:16:15;96765.50;;;19.00;100.00
6829;BME280;17930;48.592;8.868;2023-06-22T02:18:47;96746.97;;;19.00;100.00
6829;BME280;17930;48.592;8.868;2023-06-22T02:21:16;96764.47;;;19.13;100.00
6829;BME280;17930;48.592;8.868;2023-06-22T02:23:43;96792.91;;;19.16;100.00
6829;BME280;17930;48.592;8.868;2023-06-22T02:26:09;96790.84;;;19.21;100.00
6829;BME280;17930;48.592;8.868;2023-06-22T02:28:36;96763.16;;;19.19;100.00
6829;BME280;17930;48.592;8.868;2023-06-22T02:31:03;96761.16;;;19.04;100.00
6829;BME280;17930;48.592;8.868;2023-06-22T02:33:30;96758.97;;;18.98;100.00
6829;BME280;17930;48.592;8.868;2023-06-22T02:35:58;96771.44;;;18.97;100.00
6829;BME280;17930;48.592;8.868;2023-06-22T02:38:25;96771.94;;;19.11;100.00
6829;BME280;17930;48.592;8.868;2023-06-22T02:40:52;96756.94;;;19.03;100.00
6829;BME280;17930;48.592;8.868;2023-06-22T02:43:18;96756.59;;;18.84;100.00
6829;BME280;17930;48.592;8.868;2023-06-22T02:45:45;96762.78;;;18.88;100.00
6829;BME280;17930;48.592;8.868;2023-06-22T02:48:11;96774.47;;;18.87;100.00
6829;BME280;17930;48.592;8.868;2023-06-22T02:50:38;96769.38;;;18.82;100.00
6829;BME280;17930;48.592;8.868;2023-06-22T02:53:06;96763.31;;;18.82;100.00
6829;BME280;17930;48.592;8.868;2023-06-22T02:55:33;96763.81;;;18.75;100.00
6829;BME280;17930;48.592;8.868;2023-06-22T02:57:59;96762.47;;;18.69;100.00
6829;BME280;17930;48.592;8.868;2023-06-22T03:00:30;96767.31;;;18.67;100.00
6829;BME280;17930;48.592;8.868;2023-06-22T03:02:57;96762.03;;;18.67;100.00
6829;BME280;17930;48.592;8.868;2023-06-22T03:05:24;96762.34;;;18.66;100.00
6829;BME280;17930;48.592;8.868;2023-06-22T03:07:51;96765.00;;;18.66;100.00
6829;BME280;17930;48.592;8.868;2023-06-22T03:10:19;96753.84;;;18.60;100.00
6829;BME280;17930;48.592;8.868;2023-06-22T03:12:46;96755.69;;;18.60;100.00
6829;BME280;17930;48.592;8.868;2023-06-22T03:15:13;96761.75;;;18.60;100.00
6829;BME280;17930;48.592;8.868;2023-06-22T03:17:40;96754.91;;;18.59;100.00
6829;BME280;17930;48.592;8.868;2023-06-22T03:20:08;96754.00;;;18.55;100.00
6829;BME280;17930;48.592;8.868;2023-06-22T03:22:36;96761.03;;;18.51;100.00
6829;BME280;17930;48.592;8.868;2023-06-22T03:25:03;96759.50;;;18.50;100.00
6829;BME280;17930;48.592;8.868;2023-06-22T03:27:36;96757.50;;;18.48;100.00
6829;BME280;17930;48.592;8.868;2023-06-22T03:30:04;96752.22;;;18.48;100.00
6829;BME280;17930;48.592;8.868;2023-06-22T03:32:30;96748.72;;;18.55;100.00
6829;BME280;17930;48.592;8.868;2023-06-22T03:34:57;96736.97;;;18.45;100.00
6829;BME280;17930;48.592;8.868;2023-06-22T03:37:25;96746.94;;;18.48;100.00
6829;BME280;17930;48.592;8.868;2023-06-22T03:39:52;96740.84;;;18.47;100.00
6829;BME280;17930;48.592;8.868;2023-06-22T03:42:18;96737.44;;;18.47;100.00
6829;BME280;17930;48.592;8.868;2023-06-22T03:44:47;96738.53;;;18.46;100.00
6829;BME280;17930;48.592;8.868;2023-06-22T03:47:13;96740.03;;;18.55;100.00
6829;BME280;17930;48.592;8.868;2023-06-22T03:49:40;96739.81;;;18.60;100.00
6829;BME280;17930;48.592;8.868;2023-06-22T03:52:07;96741.28;;;18.57;100.00
6829;BME280;17930;48.592;8.868;2023-06-22T03:54:34;96747.00;;;18.59;100.00
6829;BME280;17930;48.592;8.868;2023-06-22T03:57:00;96742.94;;;18.62;100.00
6829;BME280;17930;48.592;8.868;2023-06-22T03:59:27;96739.06;;;18.59;100.00
6829;BME280;17930;48.592;8.868;2023-06-22T04:01:55;96734.88;;;18.58;100.00
6829;BME280;17930;48.592;8.868;2023-06-22T04:04:21;96735.34;;;18.60;100.00
6829;BME280;17930;48.592;8.868;2023-06-22T04:06:48;96730.22;;;18.55;100.00
6829;BME280;17930;48.592;8.868;2023-06-22T04:09:15;96727.09;;;18.62;100.00
6829;BME280;17930;48.592;8.868;2023-06-22T04:11:41;96724.88;;;18.64;100.00
6829;BME280;17930;48.592;8.868;2023-06-22T04:14:08;96724.88;;;18.64;100.00
6829;BME280;17930;48.592;8.868;2023-06-22T04:16:35;96722.94;;;18.93;100.00
6829;BME280;17930;48.592;8.868;2023-06-22T04:19:02;96722.28;;;18.96;100.00
6829;BME280;17930;48.592;8.868;2023-06-22T04:21:29;96719.72;;;18.88;100.00
6829;BME280;17930;48.592;8.868;2023-06-22T04:23:56;96732.72;;;18.93;100.00
6829;BME280;17930;48.592;8.868;2023-06-22T04:26:22;96723.84;;;18.97;100.00
6829;BME280;17930;48.592;8.868;2023-06-22T04:28:49;96715.88;;;19.05;100.00
6829;BME280;17930;48.592;8.868;2023-06-22T04:31:20;96704.50;;;19.05;100.00
6829;BME280;17930;48.592;8.868;2023-06-22T04:33:47;96701.72;;;19.01;100.00
6829;BME280;17930;48.592;8.868;2023-06-22T04:36:18;96700.47;;;18.99;100.00
6829;BME280;17930;48.592;8.868;2023-06-22T04:38:46;96701.66;;;19.10;100.00
6829;BME280;17930;48.592;8.868;2023-06-22T04:41:12;96706.28;;;19.13;100.00
6829;BME280;17930;48.592;8.868;2023-06-22T04:43:49;96706.97;;;19.22;100.00
6829;BME280;17930;48.592;8.868;2023-06-22T04:46:19;96707.44;;;19.24;100.00
6829;BME280;17930;48.592;8.868;2023-06-22T04:48:45;96709.66;;;19.34;100.00
6829;BME280;17930;48.592;8.868;2023-06-22T04:51:13;96702.59;;;19.38;100.00
6829;BME280;17930;48.592;8.868;2023-06-22T04:53:40;96696.63;;;19.41;100.00
6829;BME280;17930;48.592;8.868;2023-06-22T04:56:08;96687.97;;;19.52;100.00
6829;BME280;17930;48.592;8.868;2023-06-22T04:58:35;96698.00;;;19.58;100.00
6829;BME280;17930;48.592;8.868;2023-06-22T05:01:01;96700.78;;;19.74;100.00
6829;BME280;17930;48.592;8.868;2023-06-22T05:03:29;96682.66;;;19.76;100.00
6829;BME280;17930;48.592;8.868;2023-06-22T05:05:55;96675.28;;;19.81;100.00
6829;BME280;17930;48.592;8.868;2023-06-22T05:08:22;96682.38;;;19.89;100.00
6829;BME280;17930;48.592;8.868;2023-06-22T05:10:54;96678.19;;;20.00;100.00
6829;BME280;17930;48.592;8.868;2023-06-22T05:13:21;96677.31;;;19.96;100.00
6829;BME280;17930;48.592;8.868;2023-06-22T05:15:53;96674.63;;;20.08;100.00
6829;BME280;17930;48.592;8.868;2023-06-22T05:18:26;96669.56;;;20.15;100.00
6829;BME280;17930;48.592;8.868;2023-06-22T05:20:55;96672.84;;;20.24;100.00
6829;BME280;17930;48.592;8.868;2023-06-22T05:23:22;96671.06;;;20.40;100.00
6829;BME280;17930;48.592;8.868;2023-06-22T05:25:48;96674.00;;;20.50;100.00
6829;BME280;17930;48.592;8.868;2023-06-22T05:28:16;96677.41;;;20.51;100.00
6829;BME280;17930;48.592;8.868;2023-06-22T05:30:51;96674.97;;;20.57;100.00
6829;BME280;17930;48.592;8.868;2023-06-22T05:33:19;96686.88;;;20.63;100.00
6829;BME280;17930;48.592;8.868;2023-06-22T05:35:46;96687.13;;;20.70;100.00
6829;BME280;17930;48.592;8.868;2023-06-22T05:38:13;96682.16;;;20.69;100.00
6829;BME280;17930;48.592;8.868;2023-06-22T05:40:40;96680.91;;;20.66;100.00
6829;BME280;17930;48.592;8.868;2023-06-22T05:43:07;96680.59;;;20.68;100.00
6829;BME280;17930;48.592;8.868;2023-06-22T05:45:34;96678.44;;;20.85;100.00
6829;BME280;17930;48.592;8.868;2023-06-22T05:48:01;96686.81;;;20.87;100.00
6829;BME280;17930;48.592;8.868;2023-06-22T05:50:28;96678.72;;;20.96;100.00
6829;BME280;17930;48.592;8.868;2023-06-22T05:52:54;96688.97;;;21.09;100.00
6829;BME280;17930;48.592;8.868;2023-06-22T05:55:21;96679.13;;;21.25;100.00
6829;BME280;17930;48.592;8.868;2023-06-22T05:57:48;96677.94;;;21.22;100.00
6829;BME280;17930;48.592;8.868;2023-06-22T06:00:15;96673.13;;;21.28;100.00
6829;BME280;17930;48.592;8.868;2023-06-22T06:02:43;96676.91;;;21.42;100.00
6829;BME280;17930;48.592;8.868;2023-06-22T06:05:10;96676.72;;;21.63;100.00
6829;BME280;17930;48.592;8.868;2023-06-22T06:07:39;96672.34;;;21.70;100.00
6829;BME280;17930;48.592;8.868;2023-06-22T06:10:07;96677.38;;;21.90;100.00
6829;BME280;17930;48.592;8.868;2023-06-22T06:12:33;96673.59;;;21.91;100.00
6829;BME280;17930;48.592;8.868;2023-06-22T06:15:00;96667.31;;;21.99;100.00
6829;BME280;17930;48.592;8.868;2023-06-22T06:17:27;96677.00;;;22.07;100.00
6829;BME280;17930;48.592;8.868;2023-06-22T06:19:55;96670.03;;;22.18;100.00
6829;BME280;17930;48.592;8.868;2023-06-22T06:22:21;96667.78;;;22.35;100.00
6829;BME280;17930;48.592;8.868;2023-06-22T06:24:49;96675.69;;;22.32;100.00
6829;BME280;17930;48.592;8.868;2023-06-22T06:27:16;96669.28;;;22.52;100.00
6829;BME280;17930;48.592;8.868;2023-06-22T06:29:44;96679.72;;;22.60;100.00
6829;BME280;17930;48.592;8.868;2023-06-22T06:32:14;96680.84;;;22.78;100.00
6829;BME280;17930;48.592;8.868;2023-06-22T06:34:40;96680.75;;;23.12;100.00
6829;BME280;17930;48.592;8.868;2023-06-22T06:37:09;96675.59;;;23.00;100.00
6829;BME280;17930;48.592;8.868;2023-06-22T06:39:36;96679.09;;;23.04;100.00
6829;BME280;17930;48.592;8.868;2023-06-22T06:42:04;96673.88;;;23.30;100.00
6829;BME280;17930;48.592;8.868;2023-06-22T06:44:31;96675.00;;;23.29;100.00
6829;BME280;17930;48.592;8.868;2023-06-22T06:46:58;96676.78;;;23.44;100.00
6829;BME280;17930;48.592;8.868;2023-06-22T06:49:25;96675.41;;;23.72;100.00
6829;BME280;17930;48.592;8.868;2023-06-22T06:51:51;96669.31;;;23.97;100.00
6829;BME280;17930;48.592;8.868;2023-06-22T06:54:19;96679.91;;;23.94;100.00
6829;BME280;17930;48.592;8.868;2023-06-22T06:56:46;96670.19;;;24.05;100.00
6829;BME280;17930;48.592;8.868;2023-06-22T06:59:13;96667.28;;;24.13;100.00
6829;BME280;17930;48.592;8.868;2023-06-22T07:01:40;96656.44;;;24.28;100.00
6829;BME280;17930;48.592;8.868;2023-06-22T07:04:07;96665.88;;;24.48;100.00
6829;BME280;17930;48.592;8.868;2023-06-22T07:06:33;96659.88;;;24.87;100.00
6829;BME280;17930;48.592;8.868;2023-06-22T07:09:00;96646.72;;;25.01;100.00
6829;BME280;17930;48.592;8.868;2023-06-22T07:11:30;96648.44;;;25.20;100.00
6829;BME280;17930;48.592;8.868;2023-06-22T07:13:57;96641.44;;;25.48;100.00
6829;BME280;17930;48.592;8.868;2023-06-22T07:16:24;96635.84;;;25.60;100.00
6829;BME280;17930;48.592;8.868;2023-06-22T07:18:54;96638.44;;;25.53;100.00
6829;BME280;17930;48.592;8.868;2023-06-22T07:21:20;96635.56;;;25.72;100.00
6829;BME280;17930;48.592;8.868;2023-06-22T07:23:47;96633.91;;;25.57;100.00
6829;BME280;17930;48.592;8.868;2023-06-22T07:26:14;96623.09;;;25.93;100.00
6829;BME280;17930;48.592;8.868;2023-06-22T07:28:46;96618.44;;;26.33;100.00
6829;BME280;17930;48.592;8.868;2023-06-22T07:31:13;96613.56;;;26.56;100.00
6829;BME280;17930;48.592;8.868;2023-06-22T07:33:39;96609.72;;;26.57;100.00
6829;BME280;17930;48.592;8.868;2023-06-22T07:36:06;96614.38;;;26.74;100.00
6829;BME280;17930;48.592;8.868;2023-06-22T07:38:34;96603.31;;;26.89;100.00
6829;BME280;17930;48.592;8.868;2023-06-22T07:41:02;96609.50;;;27.00;100.00
6829;BME280;17930;48.592;8.868;2023-06-22T07:43:30;96616.44;;;27.22;100.00
6829;BME280;17930;48.592;8.868;2023-06-22T07:46:00;96627.94;;;27.43;100.00
6829;BME280;17930;48.592;8.868;2023-06-22T07:48:26;96637.91;;;27.46;100.00
6829;BME280;17930;48.592;8.868;2023-06-22T07:50:53;96635.63;;;28.10;100.00
6829;BME280;17930;48.592;8.868;2023-06-22T07:53:20;96638.69;;;28.12;100.00
6829;BME280;17930;48.592;8.868;2023-06-22T07:55:47;96649.38;;;28.40;100.00
6829;BME280;17930;48.592;8.868;2023-06-22T07:58:13;96660.03;;;28.64;100.00
6829;BME280;17930;48.592;8.868;2023-06-22T08:00:41;96664.28;;;28.69;100.00
6829;BME280;17930;48.592;8.868;2023-06-22T08:03:09;96670.31;;;28.94;100.00
6829;BME280;17930;48.592;8.868;2023-06-22T08:05:35;96680.31;;;28.90;100.00
6829;BME280;17930;48.592;8.868;2023-06-22T08:08:02;96678.63;;;29.30;100.00
6829;BME280;17930;48.592;8.868;2023-06-22T08:10:29;96686.03;;;29.70;100.00
6829;BME280;17930;48.592;8.868;2023-06-22T08:12:55;96691.47;;;30.57;100.00
6829;BME280;17930;48.592;8.868;2023-06-22T08:15:22;96696.06;;;30.16;100.00
6829;BME280;17930;48.592;8.868;2023-06-22T08:17:49;96702.94;;;30.24;100.00
6829;BME280;17930;48.592;8.868;2023-06-22T08:20:18;96696.13;;;30.09;100.00
6829;BME280;17930;48.592;8.868;2023-06-22T08:22:45;96680.56;;;29.26;100.00
6829;BME280;17930;48.592;8.868;2023-06-22T08:25:12;96678.75;;;28.95;100.00
6829;BME280;17930;48.592;8.868;2023-06-22T08:27:39;96663.06;;;28.84;100.00
6829;BME280;17930;48.592;8.868;2023-06-22T08:30:07;96660.59;;;29.17;100.00
6829;BME280;17930;48.592;8.868;2023-06-22T08:32:36;96662.75;;;29.46;100.00
6829;BME280;17930;48.592;8.868;2023-06-22T08:35:03;96664.56;;;30.13;100.00
6829;BME280;17930;48.592;8.868;2023-06-22T08:37:32;96654.81;;;30.63;100.00
6829;BME280;17930;48.592;8.868;2023-06-22T08:40:02;96652.66;;;30.81;100.00
6829;BME280;17930;48.592;8.868;2023-06-22T08:42:29;96649.34;;;31.59;100.00
6829;BME280;17930;48.592;8.868;2023-06-22T08:44:57;96652.88;;;32.47;100.00
6829;BME280;17930;48.592;8.868;2023-06-22T08:47:24;96653.72;;;32.83;100.00
6829;BME280;17930;48.592;8.868;2023-06-22T08:49:50;96665.56;;;32.27;100.00
6829;BME280;17930;48.592;8.868;2023-06-22T08:52:17;96682.06;;;31.61;100.00
6829;BME280;17930;48.592;8.868;2023-06-22T08:54:46;96679.00;;;31.03;100.00
6829;BME280;17930;48.592;8.868;2023-06-22T08:57:13;96669.09;;;32.47;100.00
6829;BME280;17930;48.592;8.868;2023-06-22T08:59:41;96654.53;;;33.85;100.00
6829;BME280;17930;48.592;8.868;2023-06-22T09:02:08;96660.22;;;34.95;100.00
6829;BME280;17930;48.592;8.868;2023-06-22T09:04:34;96644.63;;;34.83;96.97
6829;BME280;17930;48.592;8.868;2023-06-22T09:07:02;96646.50;;;35.88;89.41
6829;BME280;17930;48.592;8.868;2023-06-22T09:09:32;96637.13;;;35.77;86.38
6829;BME280;17930;48.592;8.868;2023-06-22T09:12:00;96632.44;;;35.16;86.61
6829;BME280;17930;48.592;8.868;2023-06-22T09:14:27;96629.50;;;35.10;91.52
6829;BME280;17930;48.592;8.868;2023-06-22T09:16:53;96621.59;;;35.28;86.54
6829;BME280;17930;48.592;8.868;2023-06-22T09:19:20;96617.25;;;35.30;87.97
6829;BME280;17930;48.592;8.868;2023-06-22T09:21:47;96612.41;;;36.42;84.60
6829;BME280;17930;48.592;8.868;2023-06-22T09:24:13;96604.50;;;36.57;79.69
6829;BME280;17930;48.592;8.868;2023-06-22T09:26:40;96602.13;;;36.59;81.43
6829;BME280;17930;48.592;8.868;2023-06-22T09:29:08;96592.91;;;36.65;76.87
6829;BME280;17930;48.592;8.868;2023-06-22T09:31:35;96592.34;;;36.28;81.83
6829;BME280;17930;48.592;8.868;2023-06-22T09:34:01;96580.53;;;35.63;81.21
6829;BME280;17930;48.592;8.868;2023-06-22T09:36:28;96568.38;;;35.55;83.65
6829;BME280;17930;48.592;8.868;2023-06-22T09:38:55;96564.69;;;35.49;81.12
6829;BME280;17930;48.592;8.868;2023-06-22T09:41:24;96560.69;;;36.34;78.93
6829;BME280;17930;48.592;8.868;2023-06-22T09:43:51;96557.59;;;36.74;74.90
6829;BME280;17930;48.592;8.868;2023-06-22T09:46:20;96550.00;;;36.69;72.74
6829;BME280;17930;48.592;8.868;2023-06-22T09:48:50;96552.38;;;36.03;74.33
6829;BME280;17930;48.592;8.868;2023-06-22T09:51:17;96548.16;;;35.56;80.85
6829;BME280;17930;48.592;8.868;2023-06-22T09:53:44;96552.00;;;35.22;81.85
6829;BME280;17930;48.592;8.868;2023-06-22T09:56:11;96548.69;;;34.77;83.29
6829;BME280;17930;48.592;8.868;2023-06-22T09:58:40;96552.09;;;35.30;82.67
6829;BME280;17930;48.592;8.868;2023-06-22T10:01:07;96546.88;;;35.82;80.13
6829;BME280;17930;48.592;8.868;2023-06-22T10:03:36;96544.59;;;35.93;81.42
6829;BME280;17930;48.592;8.868;2023-06-22T10:06:06;96544.81;;;35.98;78.17
6829;BME280;17930;48.592;8.868;2023-06-22T10:08:32;96536.84;;;36.38;80.64
6829;BME280;17930;48.592;8.868;2023-06-22T10:10:59;96534.47;;;37.00;74.52
6829;BME280;17930;48.592;8.868;2023-06-22T10:13:26;96516.81;;;37.13;74.23
6829;BME280;17930;48.592;8.868;2023-06-22T10:15:53;96516.34;;;37.15;69.62
6829;BME280;17930;48.592;8.868;2023-06-22T10:18:20;96525.78;;;36.20;73.27
6829;BME280;17930;48.592;8.868;2023-06-22T10:20:49;96520.22;;;36.23;72.85
6829;BME280;17930;48.592;8.868;2023-06-22T10:23:16;96512.97;;;37.02;72.51
6829;BME280;17930;48.592;8.868;2023-06-22T10:25:43;96519.19;;;37.50;74.57
6829;BME280;17930;48.592;8.868;2023-06-22T10:28:10;96514.56;;;37.87;68.17
6829;BME280;17930;48.592;8.868;2023-06-22T10:30:38;96523.19;;;37.67;69.05
6829;BME280;17930;48.592;8.868;2023-06-22T10:33:07;96513.72;;;37.42;71.84
6829;BME280;17930;48.592;8.868;2023-06-22T10:35:37;96514.72;;;38.01;67.20
6829;BME280;17930;48.592;8.868;2023-06-22T10:38:05;96513.19;;;37.64;69.01
6829;BME280;17930;48.592;8.868;2023-06-22T10:40:33;96522.19;;;36.95;68.24
6829;BME280;17930;48.592;8.868;2023-06-22T10:43:00;96516.53;;;36.60;70.33
6829;BME280;17930;48.592;8.868;2023-06-22T10:45:26;96513.56;;;37.36;70.95
6829;BME280;17930;48.592;8.868;2023-06-22T10:47:55;96502.53;;;37.40;66.84
6829;BME280;17930;48.592;8.868;2023-06-22T10:50:22;96521.34;;;35.33;74.28
6829;BME280;17930;48.592;8.868;2023-06-22T10:52:49;96529.25;;;34.25;79.66
6829;BME280;17930;48.592;8.868;2023-06-22T10:55:18;96520.25;;;34.57;81.09
6829;BME280;17930;48.592;8.868;2023-06-22T10:57:44;96516.44;;;35.53;79.08
6829;BME280;17930;48.592;8.868;2023-06-22T11:00:13;96515.41;;;35.01;79.05
6829;BME280;17930;48.592;8.868;2023-06-22T11:02:40;96516.97;;;34.62;80.37
6829;BME280;17930;48.592;8.868;2023-06-22T11:05:07;96511.91;;;35.26;82.88
6829;BME280;17930;48.592;8.868;2023-06-22T11:07:34;96510.59;;;35.42;80.59
6829;BME280;17930;48.592;8.868;2023-06-22T11:10:00;96510.16;;;34.82;82.18
6829;BME280;17930;48.592;8.868;2023-06-22T11:12:29;96504.84;;;34.78;83.13
6829;BME280;17930;48.592;8.868;2023-06-22T11:14:55;96495.53;;;35.96;79.84
6829;BME280;17930;48.592;8.868;2023-06-22T11:17:22;96491.53;;;36.43;78.89
6829;BME280;17930;48.592;8.868;2023-06-22T11:19:56;96498.06;;;36.76;78.06
6829;BME280;17930;48.592;8.868;2023-06-22T11:22:23;96495.38;;;37.24;76.59
6829;BME280;17930;48.592;8.868;2023-06-22T11:24:49;96490.28;;;37.05;73.15
6829;BME280;17930;48.592;8.868;2023-06-22T11:27:16;96496.00;;;36.16;77.27
6829;BME280;17930;48.592;8.868;2023-06-22T11:29:44;96484.97;;;36.62;79.55
6829;BME280;17930;48.592;8.868;2023-06-22T11:32:11;96484.69;;;36.69;81.23
6829;BME280;17930;48.592;8.868;2023-06-22T11:34:38;96489.84;;;36.67;78.68
6829;BME280;17930;48.592;8.868;2023-06-22T11:37:05;96494.50;;;35.35;80.84
6829;BME280;17930;48.592;8.868;2023-06-22T11:39:32;96518.56;;;34.06;86.26
6829;BME280;17930;48.592;8.868;2023-06-22T11:41:59;96524.13;;;33.71;93.47
6829;BME280;17930;48.592;8.868;2023-06-22T11:44:25;96535.06;;;33.52;100.00
6829;BME280;17930;48.592;8.868;2023-06-22T11:46:53;96532.56;;;33.73;100.00
6829;BME280;17930;48.592;8.868;2023-06-22T11:49:20;96535.25;;;33.61;100.00
6829;BME280;17930;48.592;8.868;2023-06-22T11:51:47;96532.25;;;33.23;100.00
6829;BME280;17930;48.592;8.868;2023-06-22T11:54:14;96539.97;;;32.90;100.00
6829;BME280;17930;48.592;8.868;2023-06-22T11:56:41;96540.34;;;32.72;100.00
6829;BME280;17930;48.592;8.868;2023-06-22T11:59:17;96531.66;;;32.81;100.00
6829;BME280;17930;48.592;8.868;2023-06-22T12:01:44;96500.97;;;33.38;100.00
6829;BME280;17930;48.592;8.868;2023-06-22T12:04:12;96498.84;;;33.30;98.25
6829;BME280;17930;48.592;8.868;2023-06-22T12:06:39;96512.78;;;32.97;98.33
6829;BME280;17930;48.592;8.868;2023-06-22T12:09:09;96524.97;;;33.05;100.00
6829;BME280;17930;48.592;8.868;2023-06-22T12:11:36;96534.19;;;32.72;100.00
6829;BME280;17930;48.592;8.868;2023-06-22T12:14:04;96548.06;;;32.35;100.00
6829;BME280;17930;48.592;8.868;2023-06-22T12:16:31;96553.03;;;32.17;100.00
6829;BME280;17930;48.592;8.868;2023-06-22T12:18:57;96559.38;;;32.11;100.00
6829;BME280;17930;48.592;8.868;2023-06-22T12:21:25;96558.72;;;32.04;100.00
6829;BME280;17930;48.592;8.868;2023-06-22T12:23:53;96553.91;;;32.53;100.00
6829;BME280;17930;48.592;8.868;2023-06-22T12:26:19;96540.06;;;32.86;100.00
6829;BME280;17930;48.592;8.868;2023-06-22T12:28:47;96539.84;;;32.97;100.00
6829;BME280;17930;48.592;8.868;2023-06-22T12:31:14;96541.81;;;33.28;100.00
6829;BME280;17930;48.592;8.868;2023-06-22T12:33:44;96547.63;;;33.26;100.00
6829;BME280;17930;48.592;8.868;2023-06-22T12:36:14;96546.53;;;32.73;100.00
6829;BME280;17930;48.592;8.868;2023-06-22T12:38:45;96567.06;;;32.51;100.00
6829;BME280;17930;48.592;8.868;2023-06-22T12:41:12;96566.13;;;32.19;100.00
6829;BME280;17930;48.592;8.868;2023-06-22T12:43:39;96573.16;;;32.16;100.00
6829;BME280;17930;48.592;8.868;2023-06-22T12:46:05;96572.22;;;32.04;100.00
6829;BME280;17930;48.592;8.868;2023-06-22T12:48:32;96569.69;;;31.93;100.00
6829;BME280;17930;48.592;8.868;2023-06-22T12:50:59;96569.88;;;32.06;100.00
6829;BME280;17930;48.592;8.868;2023-06-22T12:53:26;96557.91;;;32.07;100.00
6829;BME280;17930;48.592;8.868;2023-06-22T12:55:54;96547.66;;;32.17;100.00
6829;BME280;17930;48.592;8.868;2023-06-22T12:58:20;96541.13;;;31.96;100.00
6829;BME280;17930;48.592;8.868;2023-06-22T13:00:48;96540.88;;;31.87;100.00
6829;BME280;17930;48.592;8.868;2023-06-22T13:03:14;96529.56;;;32.14;100.00
6829;BME280;17930;48.592;8.868;2023-06-22T13:05:41;96522.28;;;32.50;100.00